Time;durP1;ratioP1;P1;durP2;ratioP2;P2;SDS_P1;SDS_P2;PMS_P1;PMS_P2;Temp;Humidity;BMP_temperature;BMP_pressure;BME280_temperature;BME280_humidity;BME280_pressure;Samples;Min_cycle;Max_cycle;Signal;HPM_P1;HPM_P2
2022/07/17 00:00:32;;;;;;;;;;;26.40;31.60;;;;;;1602434;73;802;-69
2022/07/17 00:02:34;;;;;;;;;;;26.40;31.70;;;;;;1602271;73;797;-67
2022/07/17 00:04:35;;;;;;;;;;;26.50;31.60;;;;;;1599020;73;715;-67
2022/07/17 00:06:37;;;;;;;;;;;26.50;31.70;;;;;;1600230;73;732;-67
2022/07/17 00:08:58;;;;;;;;;;;26.40;31.60;;;;;;1596168;73;1148;-68
2022/07/17 00:11:01;;;;;;;;;;;26.50;31.70;;;;;;1538806;76;1467;-65
2022/07/17 00:13:03;;;;;;;;;;;26.40;31.70;;;;;;1535961;76;1928;-68
2022/07/17 00:15:05;;;;;;;;;;;26.40;31.70;;;;;;1541452;76;805;-65
2022/07/17 00:17:07;;;;;;;;;;;26.40;31.70;;;;;;1537980;76;652;-65
2022/07/17 00:19:09;;;;;;;;;;;26.40;31.70;;;;;;1528199;76;1221;-64
2022/07/17 00:21:11;;;;;;;;;;;26.50;31.80;;;;;;1546850;76;683;-65
2022/07/17 00:23:12;;;;;;;;;;;26.40;31.70;;;;;;1534316;76;676;-64
2022/07/17 00:25:14;;;;;;;;;;;26.50;31.80;;;;;;1547605;76;1395;-65
2022/07/17 00:27:16;;;;;;;;;;;26.50;31.60;;;;;;1540099;76;554;-66
2022/07/17 00:29:18;;;;;;;;;;;26.50;31.50;;;;;;1541679;74;1192;-67
2022/07/17 00:31:20;;;;;;;;;;;26.40;31.50;;;;;;1551334;76;634;-66
2022/07/17 00:33:22;;;;;;;;;;;26.40;31.50;;;;;;1550548;76;1918;-65
2022/07/17 00:35:24;;;;;;;;;;;26.50;31.50;;;;;;1541485;76;722;-65
2022/07/17 00:37:26;;;;;;;;;;;26.50;31.50;;;;;;1549881;76;731;-65
2022/07/17 00:39:28;;;;;;;;;;;26.50;31.50;;;;;;1543600;76;1451;-66
2022/07/17 00:41:30;;;;;;;;;;;26.40;31.40;;;;;;1522067;76;795;-63
2022/07/17 00:43:32;;;;;;;;;;;26.50;31.50;;;;;;1544215;76;688;-66
2022/07/17 00:45:34;;;;;;;;;;;26.50;31.40;;;;;;1545619;76;727;-66
2022/07/17 00:47:37;;;;;;;;;;;26.40;31.40;;;;;;1546121;76;735;-68
2022/07/17 00:49:39;;;;;;;;;;;26.40;31.50;;;;;;1547691;75;1143;-65
2022/07/17 00:51:41;;;;;;;;;;;26.40;31.50;;;;;;1551638;76;751;-67
2022/07/17 00:53:43;;;;;;;;;;;26.40;31.50;;;;;;1530291;76;1936;-65
2022/07/17 00:55:49;;;;;;;;;;;26.50;31.50;;;;;;1540781;76;687;-65
2022/07/17 00:57:51;;;;;;;;;;;26.50;31.50;;;;;;1542420;76;1067;-66
2022/07/17 00:59:53;;;;;;;;;;;26.40;31.40;;;;;;1542421;76;1137;-64
2022/07/17 01:01:55;;;;;;;;;;;26.40;31.30;;;;;;1546089;76;757;-64
2022/07/17 01:03:57;;;;;;;;;;;26.40;31.30;;;;;;1539705;76;718;-65
2022/07/17 01:05:59;;;;;;;;;;;26.40;31.30;;;;;;1539965;76;720;-65
2022/07/17 01:08:01;;;;;;;;;;;26.40;31.20;;;;;;1527173;77;1369;-64
2022/07/17 01:10:03;;;;;;;;;;;26.40;31.30;;;;;;1542109;76;1143;-65
2022/07/17 01:12:06;;;;;;;;;;;26.30;31.20;;;;;;1533853;76;706;-63
2022/07/17 01:14:08;;;;;;;;;;;26.30;31.20;;;;;;1546491;76;1910;-65
2022/07/17 01:16:10;;;;;;;;;;;26.30;31.20;;;;;;1543330;76;728;-64
2022/07/17 01:18:12;;;;;;;;;;;26.40;31.10;;;;;;1537300;76;705;-64
2022/07/17 01:20:14;;;;;;;;;;;26.30;31.10;;;;;;1545309;76;1122;-66
2022/07/17 01:22:16;;;;;;;;;;;26.30;31.10;;;;;;1540129;76;1559;-65
2022/07/17 01:24:19;;;;;;;;;;;26.30;31.10;;;;;;1546231;76;716;-65
2022/07/17 01:26:21;;;;;;;;;;;26.40;31.10;;;;;;1549095;76;618;-66
2022/07/17 01:28:23;;;;;;;;;;;26.30;31.10;;;;;;1540753;76;726;-65
2022/07/17 01:30:25;;;;;;;;;;;26.30;31.10;;;;;;1545146;75;1134;-66
2022/07/17 01:32:33;;;;;;;;;;;26.30;31.00;;;;;;1543469;76;726;-64
2022/07/17 01:34:35;;;;;;;;;;;26.30;31.10;;;;;;1546570;76;1915;-65
2022/07/17 01:36:37;;;;;;;;;;;26.30;31.20;;;;;;1508376;77;702;-65
2022/07/17 01:38:39;;;;;;;;;;;26.30;31.20;;;;;;1507767;77;759;-64
2022/07/17 01:40:41;;;;;;;;;;;26.30;31.20;;;;;;1506075;77;745;-64
2022/07/17 01:42:43;;;;;;;;;;;26.30;31.40;;;;;;1533357;76;781;-64
2022/07/17 01:44:45;;;;;;;;;;;26.30;31.40;;;;;;1504927;77;596;-64
2022/07/17 01:46:47;;;;;;;;;;;26.30;31.50;;;;;;1511899;77;786;-66
2022/07/17 01:48:49;;;;;;;;;;;26.30;31.50;;;;;;1513498;77;1481;-66
2022/07/17 01:50:51;;;;;;;;;;;26.30;31.60;;;;;;1514075;77;767;-67
2022/07/17 01:52:52;;;;;;;;;;;26.30;31.60;;;;;;1511177;77;706;-65
2022/07/17 01:54:54;;;;;;;;;;;26.30;31.50;;;;;;1541714;76;1947;-66
2022/07/17 01:56:56;;;;;;;;;;;26.30;31.40;;;;;;1514718;77;703;-66
2022/07/17 01:58:58;;;;;;;;;;;26.40;31.30;;;;;;1514877;77;1143;-66
2022/07/17 02:01:00;;;;;;;;;;;26.30;31.30;;;;;;1511313;77;708;-65
2022/07/17 02:03:02;;;;;;;;;;;26.30;31.30;;;;;;1518383;76;1407;-65
2022/07/17 02:05:04;;;;;;;;;;;26.30;31.30;;;;;;1507488;77;751;-68
2022/07/17 02:07:06;;;;;;;;;;;26.30;31.50;;;;;;1537336;76;747;-65
2022/07/17 02:09:07;;;;;;;;;;;26.30;31.50;;;;;;1517879;77;1134;-64
2022/07/17 02:11:09;;;;;;;;;;;26.30;31.50;;;;;;1525023;77;806;-65
2022/07/17 02:13:11;;;;;;;;;;;26.40;31.40;;;;;;1524506;77;777;-65
2022/07/17 02:15:13;;;;;;;;;;;26.40;31.30;;;;;;1515396;77;1956;-65
2022/07/17 02:17:15;;;;;;;;;;;26.30;31.20;;;;;;1521290;77;1452;-66
2022/07/17 02:19:17;;;;;;;;;;;26.30;31.30;;;;;;1523382;77;1170;-65
2022/07/17 02:21:19;;;;;;;;;;;26.30;31.40;;;;;;1523653;77;710;-65
2022/07/17 02:23:20;;;;;;;;;;;26.30;31.40;;;;;;1527152;77;718;-65
2022/07/17 02:25:22;;;;;;;;;;;26.30;31.30;;;;;;1530437;77;713;-65
2022/07/17 02:27:24;;;;;;;;;;;26.30;31.30;;;;;;1514003;77;832;-65
2022/07/17 02:29:26;;;;;;;;;;;26.30;31.30;;;;;;1529350;77;1153;-66
2022/07/17 02:31:28;;;;;;;;;;;26.30;31.30;;;;;;1524427;77;1358;-66
2022/07/17 02:33:30;;;;;;;;;;;26.30;31.20;;;;;;1523236;77;722;-64
2022/07/17 02:35:32;;;;;;;;;;;26.40;31.20;;;;;;1511066;77;1937;-65
2022/07/17 02:37:33;;;;;;;;;;;26.30;31.10;;;;;;1523498;77;682;-65
2022/07/17 02:39:35;;;;;;;;;;;26.30;31.10;;;;;;1527488;76;1192;-64
2022/07/17 02:41:37;;;;;;;;;;;26.30;31.00;;;;;;1528021;77;692;-65
2022/07/17 02:43:39;;;;;;;;;;;26.30;31.00;;;;;;1516354;77;771;-65
2022/07/17 02:45:41;;;;;;;;;;;26.40;31.00;;;;;;1509883;77;1465;-66
2022/07/17 02:47:43;;;;;;;;;;;26.30;31.00;;;;;;1518858;77;733;-64
2022/07/17 02:49:45;;;;;;;;;;;26.30;31.00;;;;;;1523915;76;1158;-62
2022/07/17 02:51:46;;;;;;;;;;;26.30;31.00;;;;;;1524248;77;770;-66
2022/07/17 02:53:48;;;;;;;;;;;26.30;31.00;;;;;;1521884;77;702;-65
2022/07/17 02:55:50;;;;;;;;;;;26.30;31.00;;;;;;1522573;77;571;-65
2022/07/17 02:57:52;;;;;;;;;;;26.30;31.00;;;;;;1522374;77;539;-66
2022/07/17 02:59:54;;;;;;;;;;;26.30;31.10;;;;;;1512696;77;1531;-66
2022/07/17 03:01:56;;;;;;;;;;;26.30;31.10;;;;;;1523817;77;729;-65
2022/07/17 03:03:58;;;;;;;;;;;26.30;31.20;;;;;;1522480;77;690;-65
2022/07/17 03:06:00;;;;;;;;;;;26.30;31.10;;;;;;1504768;77;739;-66
2022/07/17 03:08:02;;;;;;;;;;;26.30;31.30;;;;;;1515884;77;871;-64
2022/07/17 03:10:04;;;;;;;;;;;26.40;31.40;;;;;;1508401;77;1140;-65
2022/07/17 03:12:06;;;;;;;;;;;26.30;31.30;;;;;;1517649;77;797;-65
2022/07/17 03:14:08;;;;;;;;;;;26.30;31.30;;;;;;1520957;77;1937;-66
2022/07/17 03:16:10;;;;;;;;;;;26.30;31.40;;;;;;1524401;77;801;-66
2022/07/17 03:18:12;;;;;;;;;;;26.30;31.40;;;;;;1520896;77;698;-66
2022/07/17 03:20:14;;;;;;;;;;;26.30;31.40;;;;;;1523596;77;1155;-66
2022/07/17 03:22:16;;;;;;;;;;;26.30;31.40;;;;;;1514692;77;733;-67
2022/07/17 03:24:18;;;;;;;;;;;26.30;31.40;;;;;;1516432;77;732;-67
2022/07/17 03:26:20;;;;;;;;;;;26.30;31.50;;;;;;1523564;77;701;-64
2022/07/17 03:28:22;;;;;;;;;;;26.30;31.50;;;;;;1520774;77;1446;-63
2022/07/17 03:30:24;;;;;;;;;;;26.30;31.40;;;;;;1528837;77;1147;-65
2022/07/17 03:32:25;;;;;;;;;;;26.30;31.40;;;;;;1519451;77;725;-65
2022/07/17 03:34:27;;;;;;;;;;;26.30;31.40;;;;;;1516946;77;1933;-65
2022/07/17 03:36:29;;;;;;;;;;;26.30;31.30;;;;;;1520837;77;571;-65
2022/07/17 03:38:32;;;;;;;;;;;26.30;31.40;;;;;;1548354;75;726;-67
2022/07/17 03:40:33;;;;;;;;;;;26.30;31.40;;;;;;1547312;75;1180;-66
2022/07/17 03:42:35;;;;;;;;;;;26.30;31.30;;;;;;1546092;76;1454;-65
2022/07/17 03:44:37;;;;;;;;;;;26.30;31.50;;;;;;1529338;77;742;-65
2022/07/17 03:46:39;;;;;;;;;;;26.20;31.40;;;;;;1518658;77;726;-66
2022/07/17 03:48:41;;;;;;;;;;;26.30;31.50;;;;;;1518668;77;726;-65
2022/07/17 03:50:43;;;;;;;;;;;26.30;31.50;;;;;;1512144;77;692;-66
2022/07/17 03:52:45;;;;;;;;;;;26.30;31.60;;;;;;1505860;77;698;-66
2022/07/17 03:54:46;;;;;;;;;;;26.30;31.60;;;;;;1507919;77;1945;-66
2022/07/17 03:56:48;;;;;;;;;;;26.20;31.60;;;;;;1517438;77;1330;-65
2022/07/17 03:58:50;;;;;;;;;;;26.30;31.60;;;;;;1520212;76;1262;-65
2022/07/17 04:00:52;;;;;;;;;;;26.20;31.60;;;;;;1512764;77;649;-66
2022/07/17 04:02:54;;;;;;;;;;;26.30;31.60;;;;;;1505468;77;733;-66
2022/07/17 04:04:56;;;;;;;;;;;26.20;31.60;;;;;;1521676;76;709;-63
2022/07/17 04:06:58;;;;;;;;;;;26.30;31.60;;;;;;1527083;76;709;-65
2022/07/17 04:09:00;;;;;;;;;;;26.30;31.70;;;;;;1519991;76;1164;-66
2022/07/17 04:11:02;;;;;;;;;;;26.30;31.60;;;;;;1513365;77;1462;-65
2022/07/17 04:13:03;;;;;;;;;;;26.30;31.50;;;;;;1515910;77;718;-66
2022/07/17 04:15:06;;;;;;;;;;;26.20;31.50;;;;;;1514413;77;1937;-65
2022/07/17 04:17:07;;;;;;;;;;;26.20;31.60;;;;;;1525197;77;811;-66
2022/07/17 04:19:09;;;;;;;;;;;26.20;31.60;;;;;;1518187;77;1191;-65
2022/07/17 04:21:13;;;;;;;;;;;26.20;31.80;;;;;;1524598;77;790;-66
2022/07/17 04:23:14;;;;;;;;;;;26.20;31.60;;;;;;1536471;76;697;-63
2022/07/17 04:25:16;;;;;;;;;;;26.20;31.70;;;;;;1519309;77;1405;-66
2022/07/17 04:27:18;;;;;;;;;;;26.20;31.80;;;;;;1520650;77;799;-66
2022/07/17 04:29:20;;;;;;;;;;;26.20;31.70;;;;;;1520089;77;1099;-66
2022/07/17 04:31:22;;;;;;;;;;;26.20;31.70;;;;;;1523375;77;749;-66
2022/07/17 04:33:24;;;;;;;;;;;26.20;31.60;;;;;;1515965;77;810;-67
2022/07/17 04:35:26;;;;;;;;;;;26.20;31.50;;;;;;1512477;77;1934;-66
2022/07/17 04:37:28;;;;;;;;;;;26.20;31.70;;;;;;1520950;77;1440;-66
2022/07/17 04:39:30;;;;;;;;;;;26.20;31.70;;;;;;1516107;77;1183;-67
2022/07/17 04:41:32;;;;;;;;;;;26.20;31.60;;;;;;1541218;76;675;-64
2022/07/17 04:43:34;;;;;;;;;;;26.20;31.60;;;;;;1536254;77;725;-65
2022/07/17 04:45:35;;;;;;;;;;;26.20;31.60;;;;;;1531941;76;651;-65
2022/07/17 04:47:37;;;;;;;;;;;26.20;31.80;;;;;;1536015;76;775;-66
2022/07/17 04:49:39;;;;;;;;;;;26.20;31.70;;;;;;1535913;76;1146;-65
2022/07/17 04:51:41;;;;;;;;;;;26.20;31.80;;;;;;1540192;76;1457;-65
2022/07/17 04:53:43;;;;;;;;;;;26.20;31.80;;;;;;1540452;76;789;-66
2022/07/17 04:55:45;;;;;;;;;;;26.20;31.70;;;;;;1539844;76;1933;-64
2022/07/17 04:57:47;;;;;;;;;;;26.20;31.60;;;;;;1541228;76;785;-65
2022/07/17 04:59:48;;;;;;;;;;;26.20;31.60;;;;;;1539719;76;1132;-64
2022/07/17 05:01:50;;;;;;;;;;;26.20;31.50;;;;;;1534914;76;708;-64
2022/07/17 05:03:52;;;;;;;;;;;26.30;31.60;;;;;;1537939;76;665;-64
2022/07/17 05:05:54;;;;;;;;;;;26.20;31.50;;;;;;1537771;76;1566;-66
2022/07/17 05:07:56;;;;;;;;;;;26.30;31.60;;;;;;1536343;76;794;-64
2022/07/17 05:09:58;;;;;;;;;;;26.20;31.60;;;;;;1545957;74;1151;-64
2022/07/17 05:12:00;;;;;;;;;;;26.30;31.60;;;;;;1540506;76;796;-64
2022/07/17 05:14:02;;;;;;;;;;;26.20;31.50;;;;;;1545128;76;861;-67
2022/07/17 05:16:04;;;;;;;;;;;26.30;31.50;;;;;;1545194;76;1908;-65
2022/07/17 05:18:06;;;;;;;;;;;26.30;31.60;;;;;;1536775;76;739;-64
2022/07/17 05:20:08;;;;;;;;;;;26.30;31.50;;;;;;1538932;76;1579;-63
2022/07/17 05:22:10;;;;;;;;;;;26.30;31.50;;;;;;1543319;76;859;-64
2022/07/17 05:24:12;;;;;;;;;;;26.30;31.60;;;;;;1539867;76;631;-65
2022/07/17 05:26:14;;;;;;;;;;;26.30;31.60;;;;;;1541260;76;738;-65
2022/07/17 05:28:16;;;;;;;;;;;26.30;31.60;;;;;;1542844;76;757;-62
2022/07/17 05:30:17;;;;;;;;;;;26.30;31.70;;;;;;1544150;76;1130;-64
2022/07/17 05:32:19;;;;;;;;;;;26.40;31.50;;;;;;1540310;76;792;-64
2022/07/17 05:34:21;;;;;;;;;;;26.30;31.50;;;;;;1540030;76;1459;-64
2022/07/17 05:36:23;;;;;;;;;;;26.30;31.50;;;;;;1536464;76;1924;-63
2022/07/17 05:38:25;;;;;;;;;;;26.40;31.50;;;;;;1553923;76;753;-63
2022/07/17 05:40:27;;;;;;;;;;;26.30;31.50;;;;;;1542121;76;1158;-65
2022/07/17 05:42:29;;;;;;;;;;;26.30;31.40;;;;;;1535441;76;709;-65
2022/07/17 05:44:31;;;;;;;;;;;26.30;31.40;;;;;;1535383;76;784;-63
2022/07/17 05:46:32;;;;;;;;;;;26.30;31.50;;;;;;1541628;76;703;-63
2022/07/17 05:48:34;;;;;;;;;;;26.20;31.40;;;;;;1535674;76;1451;-63
2022/07/17 05:50:36;;;;;;;;;;;26.20;31.50;;;;;;1524927;76;1122;-63
2022/07/17 05:52:38;;;;;;;;;;;26.20;31.50;;;;;;1546387;76;787;-63
2022/07/17 05:54:40;;;;;;;;;;;26.10;31.50;;;;;;1543631;76;743;-66
2022/07/17 05:56:42;;;;;;;;;;;26.10;31.60;;;;;;1542247;76;1917;-65
2022/07/17 05:58:44;;;;;;;;;;;26.10;31.60;;;;;;1537423;76;1401;-63
2022/07/17 06:00:45;;;;;;;;;;;26.10;31.70;;;;;;1536276;76;642;-63
2022/07/17 06:02:47;;;;;;;;;;;26.00;31.70;;;;;;1532949;76;1451;-61
2022/07/17 06:04:49;;;;;;;;;;;26.00;31.70;;;;;;1532875;76;781;-63
2022/07/17 06:06:51;;;;;;;;;;;26.10;31.70;;;;;;1537558;76;769;-64
2022/07/17 06:08:53;;;;;;;;;;;26.00;31.70;;;;;;1535461;76;1153;-64
2022/07/17 06:10:55;;;;;;;;;;;26.10;31.70;;;;;;1556232;71;2133;-67
2022/07/17 06:12:57;;;;;;;;;;;26.00;31.80;;;;;;1533684;76;751;-68
2022/07/17 06:14:59;;;;;;;;;;;26.00;31.80;;;;;;1549795;75;772;-67
2022/07/17 06:17:00;;;;;;;;;;;26.00;31.70;;;;;;1547387;75;1945;-67
2022/07/17 06:19:02;;;;;;;;;;;26.00;31.80;;;;;;1550544;75;782;-67
2022/07/17 06:21:04;;;;;;;;;;;26.00;31.70;;;;;;1549608;75;1197;-67
2022/07/17 06:23:06;;;;;;;;;;;26.00;31.70;;;;;;1546795;75;737;-67
2022/07/17 06:25:08;;;;;;;;;;;26.00;31.80;;;;;;1546094;76;726;-67
2022/07/17 06:27:10;;;;;;;;;;;26.00;31.80;;;;;;1538503;75;703;-67
2022/07/17 06:29:12;;;;;;;;;;;26.00;31.80;;;;;;1551010;75;797;-67
2022/07/17 06:31:14;;;;;;;;;;;26.00;31.80;;;;;;1537143;76;1622;-67
2022/07/17 06:33:16;;;;;;;;;;;26.00;31.80;;;;;;1547379;77;820;-67
2022/07/17 06:35:18;;;;;;;;;;;26.00;31.70;;;;;;1545102;75;1953;-67
2022/07/17 06:37:20;;;;;;;;;;;26.00;31.80;;;;;;1580400;74;765;-67
2022/07/17 06:39:21;;;;;;;;;;;26.00;31.70;;;;;;1568557;75;763;-67
2022/07/17 06:41:23;;;;;;;;;;;26.00;31.70;;;;;;1546821;75;1110;-68
2022/07/17 06:43:25;;;;;;;;;;;26.00;31.70;;;;;;1542749;76;793;-67
2022/07/17 06:45:27;;;;;;;;;;;26.00;31.70;;;;;;1576536;74;1607;-67
2022/07/17 06:47:29;;;;;;;;;;;26.00;31.80;;;;;;1585444;74;792;-67
2022/07/17 06:49:31;;;;;;;;;;;26.00;31.80;;;;;;1573359;74;1150;-67
2022/07/17 06:51:33;;;;;;;;;;;26.00;31.70;;;;;;1580388;74;702;-67
2022/07/17 06:53:34;;;;;;;;;;;26.00;31.70;;;;;;1592250;74;650;-67
2022/07/17 06:55:36;;;;;;;;;;;26.00;31.70;;;;;;1575375;74;1945;-67
2022/07/17 06:57:38;;;;;;;;;;;25.90;31.10;;;;;;1578984;74;752;-67
2022/07/17 06:59:40;;;;;;;;;;;26.00;31.70;;;;;;1552218;75;1634;-67
2022/07/17 07:01:42;;;;;;;;;;;26.00;31.70;;;;;;1592563;74;711;-66
2022/07/17 07:03:44;;;;;;;;;;;26.00;31.70;;;;;;1533232;76;779;-67
2022/07/17 07:05:47;;;;;;;;;;;26.00;31.70;;;;;;1547745;77;773;-68
2022/07/17 07:07:48;;;;;;;;;;;26.00;31.70;;;;;;1559057;75;785;-67
2022/07/17 07:09:50;;;;;;;;;;;26.00;31.70;;;;;;1569863;75;1137;-68
2022/07/17 07:11:52;;;;;;;;;;;26.00;31.70;;;;;;1543000;77;757;-67
2022/07/17 07:13:54;;;;;;;;;;;25.90;31.20;;;;;;1538357;76;1653;-67
2022/07/17 07:15:56;;;;;;;;;;;26.00;31.70;;;;;;1563005;74;1914;-68
2022/07/17 07:17:58;;;;;;;;;;;26.00;31.70;;;;;;1545805;76;756;-67
2022/07/17 07:20:00;;;;;;;;;;;25.90;31.10;;;;;;1578281;74;1168;-67
2022/07/17 07:22:02;;;;;;;;;;;26.00;31.60;;;;;;1541342;75;838;-67
2022/07/17 07:24:04;;;;;;;;;;;25.90;31.10;;;;;;1550940;75;863;-67
2022/07/17 07:26:06;;;;;;;;;;;25.90;31.10;;;;;;1551652;75;659;-67
2022/07/17 07:28:08;;;;;;;;;;;25.90;31.10;;;;;;1542579;75;1766;-67
2022/07/17 07:30:10;;;;;;;;;;;26.00;31.70;;;;;;1547955;77;1138;-68
2022/07/17 07:32:12;;;;;;;;;;;26.00;31.70;;;;;;1542511;75;708;-68
2022/07/17 07:34:15;;;;;;;;;;;26.00;31.70;;;;;;1543375;75;793;-68
2022/07/17 07:36:16;;;;;;;;;;;26.00;31.70;;;;;;1550818;75;1933;-67
2022/07/17 07:38:18;;;;;;;;;;;26.00;31.70;;;;;;1543762;75;894;-68
2022/07/17 07:40:20;;;;;;;;;;;26.00;31.70;;;;;;1531552;77;1589;-67
2022/07/17 07:42:22;;;;;;;;;;;26.00;31.70;;;;;;1545492;75;779;-67
2022/07/17 07:44:24;;;;;;;;;;;26.00;31.70;;;;;;1574919;74;801;-68
2022/07/17 07:46:26;;;;;;;;;;;26.00;31.70;;;;;;1545584;77;736;-67
2022/07/17 07:48:28;;;;;;;;;;;26.00;31.70;;;;;;1543046;77;824;-68
2022/07/17 07:50:30;;;;;;;;;;;25.90;31.10;;;;;;1546488;75;1142;-68
2022/07/17 07:52:31;;;;;;;;;;;25.90;31.10;;;;;;1571801;75;713;-67
2022/07/17 07:54:33;;;;;;;;;;;26.00;31.60;;;;;;1556194;74;1538;-67
2022/07/17 07:56:36;;;;;;;;;;;26.00;31.70;;;;;;1565968;74;1958;-67
2022/07/17 07:58:37;;;;;;;;;;;26.00;31.70;;;;;;1581751;74;733;-67
2022/07/17 08:00:39;;;;;;;;;;;26.00;31.70;;;;;;1576625;75;1124;-67
2022/07/17 08:02:41;;;;;;;;;;;26.00;31.70;;;;;;1541652;77;806;-65
2022/07/17 08:04:43;;;;;;;;;;;26.00;31.70;;;;;;1577923;74;788;-68
2022/07/17 08:06:45;;;;;;;;;;;26.00;31.70;;;;;;1575800;75;696;-68
2022/07/17 08:08:47;;;;;;;;;;;26.00;31.60;;;;;;1571778;75;1551;-66
2022/07/17 08:10:49;;;;;;;;;;;26.00;31.60;;;;;;1566915;74;1122;-68
2022/07/17 08:12:51;;;;;;;;;;;26.00;31.70;;;;;;1549173;75;716;-68
2022/07/17 08:14:53;;;;;;;;;;;26.00;31.70;;;;;;1549361;77;774;-67
2022/07/17 08:16:55;;;;;;;;;;;26.00;31.70;;;;;;1543955;76;1940;-68
2022/07/17 08:18:57;;;;;;;;;;;26.10;31.60;;;;;;1548892;75;695;-67
2022/07/17 08:20:59;;;;;;;;;;;26.10;31.60;;;;;;1549657;75;1145;-68
2022/07/17 08:23:00;;;;;;;;;;;26.10;31.60;;;;;;1541877;75;1616;-68
2022/07/17 08:25:02;;;;;;;;;;;26.10;31.60;;;;;;1568413;75;890;-67
2022/07/17 08:27:04;;;;;;;;;;;26.20;31.50;;;;;;1572868;75;790;-68
2022/07/17 08:29:06;;;;;;;;;;;26.20;31.50;;;;;;1536633;77;703;-70
2022/07/17 08:31:09;;;;;;;;;;;26.10;31.10;;;;;;1576933;74;1061;-71
2022/07/17 08:33:14;;;;;;;;;;;26.10;30.30;;;;;;1553173;76;742;-73
2022/07/17 08:35:15;;;;;;;;;;;26.20;30.90;;;;;;1550160;75;1681;-69
2022/07/17 08:37:17;;;;;;;;;;;26.20;30.80;;;;;;1554716;75;1922;-69
2022/07/17 08:39:19;;;;;;;;;;;26.20;30.40;;;;;;1556795;75;752;-69
2022/07/17 08:41:22;;;;;;;;;;;26.20;30.70;;;;;;1549368;75;1120;-67
2022/07/17 08:43:24;;;;;;;;;;;26.20;30.70;;;;;;1555121;75;710;-68
2022/07/17 08:45:25;;;;;;;;;;;26.30;29.90;;;;;;1547301;75;734;-68
2022/07/17 08:47:27;;;;;;;;;;;26.20;29.80;;;;;;1553683;75;688;-73
2022/07/17 08:49:29;;;;;;;;;;;26.20;29.30;;;;;;1544370;75;1153;-70
2022/07/17 08:51:31;;;;;;;;;;;26.30;30.20;;;;;;1555927;75;1604;-66
2022/07/17 08:53:33;;;;;;;;;;;26.20;29.20;;;;;;1549950;75;776;-69
2022/07/17 08:55:35;;;;;;;;;;;26.20;28.50;;;;;;1563675;75;646;-69
2022/07/17 08:57:38;;;;;;;;;;;26.20;28.90;;;;;;1551595;75;1918;-66
2022/07/17 08:59:41;;;;;;;;;;;26.30;28.10;;;;;;1558225;75;1145;-70
2022/07/17 09:01:43;;;;;;;;;;;26.30;28.70;;;;;;1555849;75;727;-70
2022/07/17 09:03:56;;;;;;;;;;;26.30;28.40;;;;;;1556015;75;745;-70
2022/07/17 09:05:57;;;;;;;;;;;26.30;29.30;;;;;;1551770;75;1611;-69
2022/07/17 09:07:59;;;;;;;;;;;26.30;28.00;;;;;;1553862;75;801;-68
2022/07/17 09:10:01;;;;;;;;;;;26.30;29.20;;;;;;1554963;75;1133;-67
2022/07/17 09:12:04;;;;;;;;;;;26.30;27.80;;;;;;1549847;75;783;-68
2022/07/17 09:14:06;;;;;;;;;;;26.30;28.90;;;;;;1553329;75;616;-70
2022/07/17 09:16:10;;;;;;;;;;;26.20;28.80;;;;;;1557995;76;724;-72
2022/07/17 09:18:12;;;;;;;;;;;26.30;28.80;;;;;;1558359;75;716;-70
2022/07/17 09:20:14;;;;;;;;;;;26.30;27.80;;;;;;1556750;75;1530;-70
2022/07/17 09:22:18;;;;;;;;;;;26.30;28.80;;;;;;1557199;75;778;-70
2022/07/17 09:24:19;;;;;;;;;;;26.30;28.80;;;;;;1557720;75;719;-70
2022/07/17 09:26:22;;;;;;;;;;;26.30;28.20;;;;;;1552490;75;708;-70
2022/07/17 09:28:24;;;;;;;;;;;26.40;28.40;;;;;;1556059;75;718;-70
2022/07/17 09:30:26;;;;;;;;;;;26.30;28.40;;;;;;1557626;75;1196;-71
2022/07/17 09:32:29;;;;;;;;;;;26.40;28.80;;;;;;1556418;75;696;-72
2022/07/17 09:34:30;;;;;;;;;;;26.40;28.00;;;;;;1555051;75;1573;-73
2022/07/17 09:36:32;;;;;;;;;;;26.40;28.10;;;;;;1527564;76;1920;-71
2022/07/17 09:38:35;;;;;;;;;;;26.40;28.40;;;;;;1553202;75;801;-71
2022/07/17 09:42:57;;;;;;;;;;;26.40;28.10;;;;;;1557221;75;1672;-70
2022/07/17 09:45:03;;;;;;;;;;;26.40;28.30;;;;;;1555907;75;703;-70
2022/07/17 09:47:04;;;;;;;;;;;26.30;28.10;;;;;;1557117;75;1506;-71
2022/07/17 09:49:09;;;;;;;;;;;26.40;28.20;;;;;;1547407;75;673;-69
2022/07/17 09:51:11;;;;;;;;;;;26.40;26.80;;;;;;1551150;75;1095;-70
2022/07/17 09:53:13;;;;;;;;;;;26.40;27.80;;;;;;1552729;75;802;-70
2022/07/17 09:55:15;;;;;;;;;;;26.40;26.80;;;;;;1546984;75;770;-70
2022/07/17 09:57:17;;;;;;;;;;;26.30;26.50;;;;;;1564281;75;1936;-70
2022/07/17 09:59:19;;;;;;;;;;;26.30;28.10;;;;;;1550040;75;806;-70
2022/07/17 10:01:20;;;;;;;;;;;26.40;27.10;;;;;;1549568;75;1571;-71
2022/07/17 10:03:22;;;;;;;;;;;26.40;26.90;;;;;;1548360;75;723;-69
2022/07/17 10:05:24;;;;;;;;;;;26.40;26.80;;;;;;1552424;75;820;-70
2022/07/17 10:07:26;;;;;;;;;;;26.30;26.90;;;;;;1556844;75;779;-71
2022/07/17 10:09:28;;;;;;;;;;;26.30;27.30;;;;;;1555045;75;1133;-70
2022/07/17 10:11:31;;;;;;;;;;;26.50;27.70;;;;;;1554022;75;736;-69
2022/07/17 10:13:33;;;;;;;;;;;26.60;27.60;;;;;;1555128;75;793;-71
2022/07/17 10:15:35;;;;;;;;;;;26.70;27.40;;;;;;1555344;75;1566;-68
2022/07/17 10:17:37;;;;;;;;;;;26.60;27.00;;;;;;1558117;75;1928;-70
2022/07/17 10:19:53;;;;;;;;;;;26.50;26.50;;;;;;1558093;75;1145;-71
2022/07/17 10:21:56;;;;;;;;;;;26.40;25.90;;;;;;1555489;75;758;-71
2022/07/17 10:23:59;;;;;;;;;;;26.40;25.50;;;;;;1555348;75;677;-71
2022/07/17 10:26:01;;;;;;;;;;;26.30;27.10;;;;;;1558229;75;720;-69
2022/07/17 10:28:03;;;;;;;;;;;26.50;26.90;;;;;;1558599;75;797;-70
2022/07/17 10:30:06;;;;;;;;;;;26.40;26.80;;;;;;1552558;75;1585;-71
2022/07/17 10:32:08;;;;;;;;;;;26.60;27.20;;;;;;1552782;75;691;-71
2022/07/17 10:34:10;;;;;;;;;;;26.50;26.80;;;;;;1557326;75;691;-71
2022/07/17 10:36:12;;;;;;;;;;;26.60;27.10;;;;;;1549697;75;759;-71
2022/07/17 10:38:14;;;;;;;;;;;26.70;27.00;;;;;;1549677;75;1924;-71
2022/07/17 10:40:21;;;;;;;;;;;26.70;25.80;;;;;;1554627;75;1173;-70
2022/07/17 10:42:38;;;;;;;;;;;26.60;26.80;;;;;;1556944;75;725;-71
2022/07/17 10:44:40;;;;;;;;;;;26.50;25.60;;;;;;1560542;75;1588;-71
2022/07/17 10:46:42;;;;;;;;;;;26.60;26.70;;;;;;1539620;75;810;-69
2022/07/17 10:48:46;;;;;;;;;;;26.50;26.00;;;;;;1554939;75;709;-70
2022/07/17 10:50:48;;;;;;;;;;;26.50;26.20;;;;;;1555857;75;1153;-70
2022/07/17 10:53:07;;;;;;;;;;;26.50;26.70;;;;;;1555209;75;688;-69
2022/07/17 10:55:19;;;;;;;;;;;26.50;26.30;;;;;;1552208;75;726;-71
2022/07/17 10:57:21;;;;;;;;;;;26.50;26.20;;;;;;1553544;75;1926;-70
2022/07/17 10:59:23;;;;;;;;;;;26.50;25.70;;;;;;1547977;75;709;-70
2022/07/17 11:01:25;;;;;;;;;;;26.50;26.70;;;;;;1557771;75;1127;-69
2022/07/17 11:03:27;;;;;;;;;;;26.50;26.70;;;;;;1555178;75;787;-71
2022/07/17 11:05:29;;;;;;;;;;;26.50;26.50;;;;;;1543969;75;726;-70
2022/07/17 11:07:31;;;;;;;;;;;26.50;24.90;;;;;;1552385;75;741;-70
2022/07/17 11:09:33;;;;;;;;;;;26.50;24.80;;;;;;1558031;75;1196;-70
2022/07/17 11:11:36;;;;;;;;;;;26.40;25.70;;;;;;1558276;75;1492;-69
2022/07/17 11:13:38;;;;;;;;;;;26.30;24.60;;;;;;1556927;75;812;-70
2022/07/17 11:15:41;;;;;;;;;;;26.30;25.60;;;;;;1557894;75;822;-70
2022/07/17 11:17:46;;;;;;;;;;;26.50;25.60;;;;;;1546244;75;1934;-70
2022/07/17 11:19:48;;;;;;;;;;;26.30;25.20;;;;;;1552051;75;1177;-71
2022/07/17 11:21:50;;;;;;;;;;;26.30;25.90;;;;;;1551326;75;713;-69
2022/07/17 11:23:53;;;;;;;;;;;26.40;25.40;;;;;;1550191;75;771;-71
2022/07/17 11:25:59;;;;;;;;;;;26.40;26.00;;;;;;1560024;75;1570;-70
2022/07/17 11:28:01;;;;;;;;;;;26.50;26.00;;;;;;1548818;75;730;-71
2022/07/17 11:30:03;;;;;;;;;;;26.50;26.10;;;;;;1562125;75;1137;-70
2022/07/17 11:32:05;;;;;;;;;;;26.70;26.00;;;;;;1552559;75;773;-69
2022/07/17 11:34:09;;;;;;;;;;;26.70;26.00;;;;;;1547108;75;857;-71
2022/07/17 11:36:10;;;;;;;;;;;26.50;23.70;;;;;;1556313;75;759;-71
2022/07/17 11:38:12;;;;;;;;;;;26.50;25.80;;;;;;1546031;75;1939;-70
2022/07/17 11:40:14;;;;;;;;;;;26.60;25.70;;;;;;1547726;75;1588;-70
2022/07/17 11:42:17;;;;;;;;;;;26.70;25.70;;;;;;1558132;75;729;-70
2022/07/17 11:44:20;;;;;;;;;;;26.70;25.30;;;;;;1546112;75;821;-70
2022/07/17 11:46:22;;;;;;;;;;;26.60;24.40;;;;;;1553179;75;725;-70
2022/07/17 11:48:25;;;;;;;;;;;26.60;25.60;;;;;;1558361;75;763;-70
2022/07/17 11:50:27;;;;;;;;;;;26.50;24.90;;;;;;1554640;75;1154;-70
2022/07/17 11:52:29;;;;;;;;;;;26.40;25.50;;;;;;1546378;75;800;-71
2022/07/17 11:54:31;;;;;;;;;;;26.40;24.80;;;;;;1555090;75;1550;-69
2022/07/17 11:56:33;;;;;;;;;;;26.30;24.20;;;;;;1555987;75;790;-70
2022/07/17 11:58:45;;;;;;;;;;;26.20;23.90;;;;;;1558949;75;1943;-70
2022/07/17 12:00:47;;;;;;;;;;;26.20;24.70;;;;;;1543221;75;1130;-69
2022/07/17 12:02:51;;;;;;;;;;;26.20;25.50;;;;;;1557208;75;768;-69
2022/07/17 12:04:53;;;;;;;;;;;26.20;25.20;;;;;;1544426;75;1917;-70
2022/07/17 12:07:01;;;;;;;;;;;26.20;25.50;;;;;;1549189;75;879;-70
2022/07/17 12:09:03;;;;;;;;;;;26.30;25.80;;;;;;1557035;75;1708;-71
2022/07/17 12:11:08;;;;;;;;;;;26.40;25.70;;;;;;1556117;75;1108;-71